Weather at Charles de Gaulle International Airport

Public forecast

Using degrees Celsius for public forecast. Weather courtesy of forecast.io.

Current aviation weather report (METAR) for Charles de Gaulle International Airport

Retrieved 2020/10/27 05:30 UTC (2 minutes ago):

LFPG 270530Z 20010KT 9999 BKN012 BKN210 08/06 Q1007 TEMPO BKN008

Aviation forecast (TAF) for Charles de Gaulle International Airport

Retrieved 2020-10-27 00:42 UTC (5 hours ago):

TAF LFPG 262300Z 2700/2806 22010KT 9999 FEW020 TX13/2723Z TN06/2706Z PROB40 TEMPO 2701/2706 BKN012 PROB40 TEMPO 2706/2711 BKN006 PROB30 TEMPO 2707/2710 BKN004 BECMG 2711/2713 BKN020 PROB40 TEMPO 2713/2722 18015G25KT 4000 -RA BKN014 PROB40 TEMPO 2718/2722 2500 RA BKN008 TEMPO 2723/2803 24015G25KT 4000 -SHRA SCT025TCU BECMG 2804/2806 CAVOK